createdAt,value
2018-08-19T00:02:17.675Z,20.21
2018-08-19T00:05:05.692Z,20.17
2018-08-19T00:07:35.127Z,20.17
2018-08-19T00:10:04.893Z,20.13
2018-08-19T00:12:43.599Z,20.11
2018-08-19T00:15:13.110Z,20.04
2018-08-19T00:17:42.457Z,19.98
2018-08-19T00:20:14.097Z,19.98
2018-08-19T00:22:43.351Z,19.93
2018-08-19T00:25:28.510Z,19.88
2018-08-19T00:27:57.773Z,19.79
2018-08-19T00:30:27.098Z,19.81
2018-08-19T00:32:56.412Z,19.82
2018-08-19T00:35:26.840Z,19.80
2018-08-19T00:37:56.125Z,19.76
2018-08-19T00:40:25.411Z,19.66
2018-08-19T00:42:54.754Z,19.54
2018-08-19T00:45:24.206Z,19.46
2018-08-19T00:47:53.539Z,19.50
2018-08-19T00:50:23.766Z,19.47
2018-08-19T00:52:53.739Z,19.41
2018-08-19T00:55:23.186Z,19.38
2018-08-19T00:57:58.926Z,19.30
2018-08-19T01:00:29.412Z,19.25
2018-08-19T01:02:58.741Z,19.25
2018-08-19T01:05:28.026Z,19.11
2018-08-19T01:07:57.352Z,19.05
2018-08-19T01:10:26.637Z,19.03
2018-08-19T01:12:55.934Z,18.95
2018-08-19T01:15:25.323Z,18.88
2018-08-19T01:17:55.112Z,18.87
2018-08-19T01:20:24.428Z,18.78
2018-08-19T01:22:53.743Z,18.77
2018-08-19T01:25:23.015Z,18.75
2018-08-19T01:27:53.240Z,18.65
2018-08-19T01:30:26.320Z,18.59
2018-08-19T01:32:55.581Z,18.53
2018-08-19T01:35:30.389Z,18.49
2018-08-19T01:37:59.713Z,18.49
2018-08-19T01:40:29.006Z,18.42
2018-08-19T01:42:58.289Z,18.38
2018-08-19T01:45:27.548Z,18.31
2018-08-19T01:47:56.953Z,18.32
2018-08-19T01:50:26.211Z,18.31
2018-08-19T01:52:55.507Z,18.26
2018-08-19T01:55:24.766Z,18.22
2018-08-19T01:57:55.367Z,18.27
2018-08-19T02:00:24.601Z,18.24
2018-08-19T02:03:01.803Z,18.25
2018-08-19T02:05:31.106Z,18.21
2018-08-19T02:08:02.605Z,18.19
2018-08-19T02:10:33.392Z,18.09
2018-08-19T02:13:02.893Z,18.02
2018-08-19T02:15:32.870Z,18.08
2018-08-19T02:18:04.144Z,18.11
2018-08-19T02:20:38.129Z,17.98
2018-08-19T02:23:10.081Z,17.98
2018-08-19T02:25:46.791Z,18.00
2018-08-19T02:28:21.022Z,17.87
2018-08-19T02:31:00.102Z,17.81
2018-08-19T02:33:34.331Z,17.75
2018-08-19T02:36:07.530Z,17.74
2018-08-19T02:38:38.206Z,17.67
2018-08-19T02:41:07.683Z,17.65
2018-08-19T02:43:49.990Z,17.59
2018-08-19T02:46:19.466Z,17.65
2018-08-19T02:48:51.999Z,17.64
2018-08-19T02:51:21.669Z,17.54
2018-08-19T02:53:51.893Z,17.57
2018-08-19T02:56:21.557Z,17.57
2018-08-19T02:58:50.835Z,17.46
2018-08-19T03:01:20.157Z,17.51
2018-08-19T03:03:49.430Z,17.52
2018-08-19T03:06:18.665Z,17.51
2018-08-19T03:08:56.027Z,17.47
2018-08-19T03:11:25.298Z,17.47
2018-08-19T03:13:54.830Z,17.49
2018-08-19T03:16:24.230Z,17.61
2018-08-19T03:18:53.799Z,17.66
2018-08-19T03:21:23.340Z,17.67
2018-08-19T03:23:53.747Z,17.62
2018-08-19T03:26:23.041Z,17.61
2018-08-19T03:28:52.290Z,17.58
2018-08-19T03:31:21.586Z,17.52
2018-08-19T03:33:50.882Z,17.39
2018-08-19T03:36:20.151Z,17.40
2018-08-19T03:38:49.437Z,17.40
2018-08-19T03:41:18.718Z,17.38
2018-08-19T03:43:53.242Z,17.37
2018-08-19T03:46:22.505Z,17.32
2018-08-19T03:48:51.775Z,17.26
2018-08-19T03:51:22.067Z,17.25
2018-08-19T03:53:51.361Z,17.18
2018-08-19T03:56:27.275Z,17.18
2018-08-19T03:58:59.613Z,17.17
2018-08-19T04:01:45.045Z,17.21
2018-08-19T04:04:16.840Z,17.19
2018-08-19T04:06:46.108Z,17.20
2018-08-19T04:09:15.409Z,17.18
2018-08-19T04:11:49.596Z,17.10
2018-08-19T04:14:29.055Z,17.05
2018-08-19T04:17:00.149Z,17.06
2018-08-19T04:19:30.049Z,17.18
2018-08-19T04:22:02.466Z,17.22
2018-08-19T04:24:32.096Z,17.17
2018-08-19T04:27:09.473Z,17.09
2018-08-19T04:29:39.194Z,17.08
2018-08-19T04:32:18.396Z,17.09
2018-08-19T04:34:47.682Z,17.09
2018-08-19T04:37:16.965Z,17.11
2018-08-19T04:39:46.281Z,17.19
2018-08-19T04:42:15.615Z,17.23
2018-08-19T04:44:44.865Z,17.26
2018-08-19T04:47:28.396Z,17.29
2018-08-19T04:49:57.683Z,17.34
2018-08-19T04:52:26.983Z,17.44
2018-08-19T04:54:57.073Z,17.59
2018-08-19T04:57:26.311Z,17.77
2018-08-19T04:59:55.593Z,17.89
2018-08-19T05:02:24.914Z,17.99
2018-08-19T05:04:54.141Z,18.01
2018-08-19T05:07:23.430Z,18.03
2018-08-19T05:09:52.765Z,18.05
2018-08-19T05:12:22.046Z,18.10
2018-08-19T05:14:51.283Z,18.14
2018-08-19T05:17:20.566Z,18.18
2018-08-19T05:19:50.223Z,18.25
2018-08-19T05:22:19.485Z,18.26
2018-08-19T05:24:48.739Z,18.29
2018-08-19T05:27:18.109Z,18.39
2018-08-19T05:29:47.337Z,18.51
2018-08-19T05:32:16.694Z,18.71
2018-08-19T05:34:45.975Z,18.90
2018-08-19T05:37:15.254Z,18.97
2018-08-19T05:39:49.733Z,19.06
2018-08-19T05:42:19.031Z,19.26
2018-08-19T05:44:48.262Z,19.53
2018-08-19T05:47:17.733Z,19.60
2018-08-19T05:49:47.959Z,19.72
2018-08-19T05:52:20.842Z,19.87
2018-08-19T05:54:57.434Z,20.00
2018-08-19T05:57:26.994Z,19.98
2018-08-19T05:59:56.254Z,20.21
2018-08-19T06:02:33.565Z,20.52
2018-08-19T06:05:04.029Z,20.52
2018-08-19T06:07:33.405Z,20.65
2018-08-19T06:10:02.696Z,20.79
2018-08-19T06:12:32.087Z,20.94
2018-08-19T06:15:02.284Z,21.13
2018-08-19T06:17:31.590Z,21.01
2018-08-19T06:20:00.899Z,21.03
2018-08-19T06:22:35.403Z,21.01
2018-08-19T06:25:04.694Z,21.12
2018-08-19T06:27:38.817Z,21.24
2018-08-19T06:30:08.131Z,21.43
2018-08-19T06:32:37.442Z,21.64
2018-08-19T06:35:07.111Z,21.92
2018-08-19T06:37:36.418Z,22.19
2018-08-19T06:40:07.570Z,22.05
2018-08-19T06:42:36.860Z,21.82
2018-08-19T06:45:06.824Z,22.09
2018-08-19T06:47:36.099Z,21.91
2018-08-19T06:50:15.928Z,21.71
2018-08-19T06:52:45.251Z,22.09
2018-08-19T06:55:15.103Z,22.41
2018-08-19T06:57:44.448Z,22.65
2018-08-19T07:00:29.254Z,22.72
2018-08-19T07:03:00.894Z,22.18
2018-08-19T07:05:30.551Z,21.90
2018-08-19T07:07:59.849Z,22.07
2018-08-19T07:10:34.346Z,22.45
2018-08-19T07:13:05.997Z,22.68
2018-08-19T07:15:36.381Z,22.84
2018-08-19T07:18:06.654Z,22.93
2018-08-19T07:20:37.238Z,23.17
2018-08-19T07:23:07.001Z,23.13
2018-08-19T07:25:38.410Z,23.08
2018-08-19T07:28:09.203Z,23.52
2018-08-19T07:30:38.734Z,23.75
2018-08-19T07:33:08.255Z,23.57
2018-08-19T07:35:37.645Z,23.43
2018-08-19T07:38:06.949Z,23.69
2018-08-19T07:40:36.197Z,24.23
2018-08-19T07:43:05.697Z,24.39
2018-08-19T07:45:35.135Z,24.40
2018-08-19T07:48:04.640Z,23.93
2018-08-19T07:50:33.927Z,23.50
2018-08-19T07:53:03.268Z,23.39
2018-08-19T07:55:32.704Z,23.86
2018-08-19T07:58:02.018Z,23.94
2018-08-19T08:00:36.669Z,24.52
2018-08-19T08:03:05.944Z,24.55
2018-08-19T08:05:40.534Z,24.72
2018-08-19T08:08:10.118Z,24.87
2018-08-19T08:10:39.822Z,24.86
2018-08-19T08:13:11.264Z,25.44
2018-08-19T08:15:56.619Z,25.39
2018-08-19T08:18:25.993Z,25.16
2018-08-19T08:21:01.114Z,25.44
2018-08-19T08:23:30.389Z,25.48
2018-08-19T08:25:59.637Z,25.84
2018-08-19T08:28:29.006Z,25.41
2018-08-19T08:30:58.299Z,25.12
2018-08-19T08:33:27.642Z,25.18
2018-08-19T08:35:58.606Z,25.60
2018-08-19T08:38:27.880Z,24.79
2018-08-19T08:40:57.218Z,25.14
2018-08-19T08:43:26.625Z,24.76
2018-08-19T08:45:56.768Z,24.94
2018-08-19T08:48:26.316Z,24.72
2018-08-19T08:50:55.671Z,24.90
2018-08-19T08:53:31.989Z,25.11
2018-08-19T08:56:01.287Z,25.26
2018-08-19T08:58:30.675Z,25.36
2018-08-19T09:01:00.311Z,25.17
2018-08-19T09:03:29.591Z,25.41
2018-08-19T09:05:59.356Z,25.61
2018-08-19T09:08:29.170Z,25.74
2018-08-19T09:11:00.149Z,25.59
2018-08-19T09:13:29.407Z,26.05
2018-08-19T09:15:58.757Z,25.62
2018-08-19T09:18:28.077Z,25.71
2018-08-19T09:20:57.390Z,25.61
2018-08-19T09:23:26.704Z,25.37
2018-08-19T09:25:56.287Z,25.53
2018-08-19T09:28:25.654Z,25.47
2018-08-19T09:30:55.179Z,26.32
2018-08-19T09:33:24.550Z,26.97
2018-08-19T09:35:53.892Z,27.02
2018-08-19T09:38:24.013Z,27.06
2018-08-19T09:40:53.559Z,26.59
2018-08-19T09:43:22.750Z,27.11
2018-08-19T09:45:52.046Z,27.21
2018-08-19T09:48:21.351Z,27.94
2018-08-19T09:50:50.625Z,26.50
2018-08-19T09:53:19.919Z,26.47
2018-08-19T09:55:55.587Z,27.21
2018-08-19T09:58:24.882Z,27.61
2018-08-19T10:00:59.527Z,27.73
2018-08-19T10:03:31.202Z,28.00
2018-08-19T10:06:00.677Z,27.90
2018-08-19T10:08:29.961Z,27.62
2018-08-19T10:10:59.746Z,27.65
2018-08-19T10:13:29.076Z,27.23
2018-08-19T10:15:58.664Z,27.42
2018-08-19T10:18:28.033Z,27.55
2018-08-19T10:20:59.609Z,27.75
2018-08-19T10:23:28.898Z,27.67
2018-08-19T10:25:58.426Z,28.36
2018-08-19T10:28:27.822Z,28.10
2018-08-19T10:30:59.110Z,28.36
2018-08-19T10:33:28.352Z,27.56
2018-08-19T10:35:59.914Z,27.54
2018-08-19T10:38:29.234Z,26.88
2018-08-19T10:41:03.524Z,26.56
2018-08-19T10:43:32.820Z,26.68
2018-08-19T10:46:02.230Z,26.86
2018-08-19T10:48:31.548Z,26.88
2018-08-19T10:51:03.595Z,27.58
2018-08-19T10:53:32.858Z,27.94
2018-08-19T10:56:03.137Z,28.84
2018-08-19T10:58:32.463Z,28.98
2018-08-19T11:01:01.829Z,29.20
2018-08-19T11:03:31.537Z,28.52
2018-08-19T11:06:00.921Z,28.68
2018-08-19T11:08:30.241Z,28.65
2018-08-19T11:11:00.460Z,28.74
2018-08-19T11:13:29.785Z,28.92
2018-08-19T11:15:59.386Z,29.02
2018-08-19T11:18:39.057Z,28.56
2018-08-19T11:21:14.960Z,28.89
2018-08-19T11:23:45.541Z,28.74
2018-08-19T11:26:14.913Z,28.77
2018-08-19T11:28:53.762Z,28.79
2018-08-19T11:31:28.510Z,29.12
2018-08-19T11:34:00.943Z,29.09
2018-08-19T11:36:37.111Z,29.16
2018-08-19T11:39:11.834Z,28.70
2018-08-19T11:41:41.120Z,29.20
2018-08-19T11:44:12.868Z,29.50
2018-08-19T11:46:42.166Z,29.31
2018-08-19T11:49:13.745Z,29.58
2018-08-19T11:52:05.618Z,29.64
2018-08-19T11:54:35.569Z,28.87
2018-08-19T11:57:09.026Z,28.47
2018-08-19T11:59:39.401Z,28.91
2018-08-19T12:02:12.428Z,29.61
2018-08-19T12:04:41.698Z,28.41
2018-08-19T12:07:11.261Z,29.05
2018-08-19T12:09:50.729Z,29.34
2018-08-19T12:12:22.392Z,29.40
2018-08-19T12:14:51.701Z,29.97
2018-08-19T12:17:21.087Z,29.63
2018-08-19T12:19:50.349Z,29.71
2018-08-19T12:22:19.648Z,29.77
2018-08-19T12:24:49.330Z,30.21
2018-08-19T12:27:20.101Z,30.22
2018-08-19T12:29:49.323Z,30.39
2018-08-19T12:32:24.387Z,30.31
2018-08-19T12:34:57.773Z,29.99
2018-08-19T12:37:28.261Z,29.54
2018-08-19T12:39:58.127Z,30.04
2018-08-19T12:42:28.285Z,30.07
2018-08-19T12:45:01.281Z,29.98
2018-08-19T12:47:30.677Z,30.29
2018-08-19T12:50:01.534Z,29.96
2018-08-19T12:52:32.094Z,29.78
2018-08-19T12:55:04.280Z,30.06
2018-08-19T12:57:34.042Z,29.85
2018-08-19T13:00:11.969Z,30.34
2018-08-19T13:02:44.247Z,30.33
2018-08-19T13:05:15.181Z,30.42
2018-08-19T13:07:44.646Z,29.85
2018-08-19T13:10:16.286Z,30.35
2018-08-19T13:12:56.530Z,30.45
2018-08-19T13:15:27.894Z,30.12
2018-08-19T13:17:57.235Z,30.12
2018-08-19T13:20:26.827Z,29.67
2018-08-19T13:23:00.318Z,30.23
2018-08-19T13:25:30.137Z,30.29
2018-08-19T13:27:59.553Z,30.06
2018-08-19T13:30:28.861Z,30.71
2018-08-19T13:32:58.183Z,30.90
2018-08-19T13:35:27.472Z,30.54
2018-08-19T13:37:56.814Z,30.51
2018-08-19T13:40:26.109Z,30.16
2018-08-19T13:42:55.446Z,30.48
2018-08-19T13:45:27.283Z,30.61
2018-08-19T13:47:56.518Z,30.45
2018-08-19T13:50:25.846Z,30.39
2018-08-19T13:52:55.105Z,30.70
2018-08-19T13:55:24.439Z,30.76
2018-08-19T13:57:53.726Z,30.22
2018-08-19T14:00:24.100Z,30.24
2018-08-19T14:02:53.469Z,30.33
2018-08-19T14:05:22.824Z,30.67
2018-08-19T14:07:52.124Z,30.52
2018-08-19T14:10:21.491Z,30.99
2018-08-19T14:12:50.800Z,30.64
2018-08-19T14:15:20.121Z,31.01
2018-08-19T14:17:49.472Z,30.51
2018-08-19T14:20:18.735Z,30.74
2018-08-19T14:22:48.123Z,30.68
2018-08-19T14:25:20.328Z,30.61
2018-08-19T14:27:49.599Z,30.34
2018-08-19T14:30:19.045Z,30.27
2018-08-19T14:32:48.826Z,30.22
2018-08-19T14:35:18.186Z,30.48
2018-08-19T14:37:47.487Z,30.66
2018-08-19T14:40:18.764Z,31.10
2018-08-19T14:42:48.046Z,31.01
2018-08-19T14:45:17.372Z,31.01
2018-08-19T14:47:46.723Z,31.01
2018-08-19T14:50:18.433Z,30.57
2018-08-19T14:52:47.796Z,30.79
2018-08-19T14:55:17.126Z,29.80
2018-08-19T14:57:46.486Z,30.57
2018-08-19T15:00:17.120Z,30.82
2018-08-19T15:02:46.398Z,31.18
2018-08-19T15:05:19.169Z,30.70
2018-08-19T15:07:48.689Z,30.19
2018-08-19T15:10:24.422Z,30.11
2018-08-19T15:12:54.647Z,30.35
2018-08-19T15:15:23.711Z,30.67
2018-08-19T15:17:59.969Z,30.54
2018-08-19T15:20:35.330Z,30.50
2018-08-19T15:23:15.932Z,30.65
2018-08-19T15:25:45.524Z,30.28
2018-08-19T15:28:15.053Z,30.21
2018-08-19T15:30:44.439Z,30.38
2018-08-19T15:33:14.710Z,30.54
2018-08-19T15:35:44.219Z,30.30
2018-08-19T15:38:13.559Z,30.41
2018-08-19T15:40:46.512Z,30.18
2018-08-19T15:43:15.925Z,30.17
2018-08-19T15:45:45.676Z,30.08
2018-08-19T15:48:15.029Z,29.78
2018-08-19T15:50:44.325Z,29.97
2018-08-19T15:53:13.760Z,29.85
2018-08-19T15:55:43.133Z,29.98
2018-08-19T15:58:12.465Z,29.83
2018-08-19T16:00:42.746Z,29.82
2018-08-19T16:03:13.024Z,30.03
2018-08-19T16:05:42.378Z,30.00
2018-08-19T16:08:11.788Z,29.57
2018-08-19T16:10:41.183Z,29.77
2018-08-19T16:13:11.962Z,29.81
2018-08-19T16:15:41.450Z,29.58
2018-08-19T16:18:10.815Z,29.51
2018-08-19T16:20:40.251Z,29.67
2018-08-19T16:23:09.587Z,29.74
2018-08-19T16:25:38.880Z,29.62
2018-08-19T16:28:08.181Z,29.65
2018-08-19T16:30:37.483Z,29.57
2018-08-19T16:33:06.782Z,29.48
2018-08-19T16:35:36.098Z,29.33
2018-08-19T16:38:05.796Z,29.11
2018-08-19T16:40:35.190Z,29.16
2018-08-19T16:43:04.534Z,29.13
2018-08-19T16:45:33.866Z,29.06
2018-08-19T16:48:03.229Z,28.97
2018-08-19T16:50:32.790Z,28.88
2018-08-19T16:53:02.030Z,28.96
2018-08-19T16:55:31.421Z,28.87
2018-08-19T16:58:00.727Z,28.75
2018-08-19T17:00:30.134Z,28.63
2018-08-19T17:02:59.552Z,28.48
2018-08-19T17:05:33.348Z,28.52
2018-08-19T17:08:02.666Z,28.80
2018-08-19T17:10:31.966Z,30.30
2018-08-19T17:13:01.321Z,30.90
2018-08-19T17:15:30.636Z,30.96
2018-08-19T17:17:59.942Z,31.02
2018-08-19T17:20:29.657Z,31.30
2018-08-19T17:22:58.990Z,31.30
2018-08-19T17:25:28.385Z,31.68
2018-08-19T17:28:02.450Z,31.75
2018-08-19T17:30:31.879Z,31.48
2018-08-19T17:33:06.382Z,31.50
2018-08-19T17:35:35.825Z,30.90
2018-08-19T17:38:05.154Z,31.60
2018-08-19T17:40:34.234Z,30.72
2018-08-19T17:43:03.919Z,30.58
2018-08-19T17:45:33.269Z,30.97
2018-08-19T17:48:02.615Z,30.89
2018-08-19T17:50:31.935Z,30.62
2018-08-19T17:53:02.345Z,30.25
2018-08-19T17:55:31.665Z,29.53
2018-08-19T17:58:01.142Z,28.37
2018-08-19T18:00:30.512Z,27.69
2018-08-19T18:02:59.855Z,27.26
2018-08-19T18:05:29.194Z,27.00
2018-08-19T18:07:59.158Z,26.80
2018-08-19T18:10:28.805Z,26.56
2018-08-19T18:12:58.062Z,26.37
2018-08-19T18:15:27.359Z,26.32
2018-08-19T18:18:01.782Z,26.23
2018-08-19T18:20:38.478Z,26.23
2018-08-19T18:23:15.582Z,25.93
2018-08-19T18:25:49.350Z,25.68
2018-08-19T18:28:25.997Z,25.62
2018-08-19T18:31:01.405Z,25.39
2018-08-19T18:33:30.942Z,25.27
2018-08-19T18:36:00.581Z,25.20
2018-08-19T18:38:34.639Z,25.18
2018-08-19T18:41:03.990Z,25.06
2018-08-19T18:43:33.397Z,25.07
2018-08-19T18:46:02.839Z,24.89
2018-08-19T18:48:32.208Z,24.73
2018-08-19T18:51:01.617Z,24.65
2018-08-19T18:53:30.985Z,24.70
2018-08-19T18:56:00.328Z,24.51
2018-08-19T18:58:29.692Z,24.49
2018-08-19T19:01:00.515Z,24.41
2018-08-19T19:03:29.830Z,24.33
2018-08-19T19:05:59.165Z,24.22
2018-08-19T19:08:28.474Z,24.23
2018-08-19T19:11:03.067Z,24.20
2018-08-19T19:13:32.450Z,24.05
2018-08-19T19:16:01.810Z,23.86
2018-08-19T19:18:31.606Z,23.73
2018-08-19T19:21:03.036Z,23.67
2018-08-19T19:23:38.094Z,23.73
2018-08-19T19:26:08.047Z,23.55
2018-08-19T19:28:37.668Z,23.47
2018-08-19T19:31:12.415Z,23.43
2018-08-19T19:33:42.441Z,23.41
2018-08-19T19:36:17.010Z,23.27
2018-08-19T19:38:51.587Z,23.18
2018-08-19T19:41:27.272Z,23.09
2018-08-19T19:43:56.646Z,22.95
2018-08-19T19:46:26.141Z,22.91
2018-08-19T19:48:55.519Z,22.85
2018-08-19T19:51:24.845Z,22.78
2018-08-19T19:53:54.265Z,22.67
2018-08-19T19:56:23.540Z,22.58
2018-08-19T19:58:53.255Z,22.49
2018-08-19T20:01:24.411Z,22.39
2018-08-19T20:03:55.046Z,22.28
2018-08-19T20:06:24.948Z,22.18
2018-08-19T20:08:54.586Z,22.13
2018-08-19T20:11:28.965Z,22.09
2018-08-19T20:14:01.616Z,22.05
2018-08-19T20:16:31.134Z,22.04
2018-08-19T20:19:01.783Z,21.99
2018-08-19T20:21:35.554Z,21.99
2018-08-19T20:24:06.067Z,21.97
2018-08-19T20:26:35.875Z,21.94
2018-08-19T20:29:05.371Z,21.88
2018-08-19T20:31:34.914Z,21.86
2018-08-19T20:34:04.299Z,21.82
2018-08-19T20:36:33.896Z,21.76
2018-08-19T20:39:06.911Z,21.68
2018-08-19T20:41:36.223Z,21.60
2018-08-19T20:44:08.699Z,21.52
2018-08-19T20:46:41.589Z,21.51
2018-08-19T20:49:10.898Z,21.45
2018-08-19T20:51:40.546Z,21.45
2018-08-19T20:54:09.917Z,21.37
2018-08-19T20:56:39.273Z,21.30
2018-08-19T20:59:08.576Z,21.24
2018-08-19T21:01:37.874Z,21.23
2018-08-19T21:04:07.284Z,21.18
2018-08-19T21:06:36.766Z,21.11
2018-08-19T21:09:07.073Z,21.18
2018-08-19T21:11:36.410Z,21.22
2018-08-19T21:14:05.750Z,21.27
2018-08-19T21:16:35.027Z,21.31
2018-08-19T21:19:04.301Z,21.29
2018-08-19T21:21:33.590Z,21.27
2018-08-19T21:24:02.937Z,21.05
2018-08-19T21:26:32.197Z,21.00
2018-08-19T21:29:04.235Z,20.96
2018-08-19T21:31:34.258Z,20.88
2018-08-19T21:34:03.608Z,20.85
2018-08-19T21:36:32.913Z,20.86
2018-08-19T21:39:02.185Z,20.83
2018-08-19T21:41:48.083Z,20.88
2018-08-19T21:44:18.137Z,20.88
2018-08-19T21:46:47.435Z,20.78
2018-08-19T21:49:16.714Z,20.74
2018-08-19T21:51:46.011Z,20.63
2018-08-19T21:54:16.338Z,20.60
2018-08-19T21:56:45.615Z,20.53
2018-08-19T21:59:19.974Z,20.51
2018-08-19T22:01:59.364Z,20.43
2018-08-19T22:04:29.337Z,20.43
2018-08-19T22:06:58.595Z,20.48
2018-08-19T22:09:38.500Z,20.45
2018-08-19T22:12:08.582Z,20.39
2018-08-19T22:14:37.934Z,20.34
2018-08-19T22:17:12.019Z,20.27
2018-08-19T22:19:41.617Z,20.18
2018-08-19T22:22:10.858Z,20.27
2018-08-19T22:24:40.154Z,20.19
2018-08-19T22:27:17.215Z,20.04
2018-08-19T22:29:46.490Z,19.96
2018-08-19T22:32:15.758Z,19.95
2018-08-19T22:34:45.046Z,20.01
2018-08-19T22:37:14.401Z,19.95
2018-08-19T22:39:43.734Z,19.91
2018-08-19T22:42:12.980Z,19.88
2018-08-19T22:44:42.255Z,19.73
2018-08-19T22:47:11.622Z,19.80
2018-08-19T22:49:40.884Z,19.72
2018-08-19T22:52:20.796Z,19.65
2018-08-19T22:54:53.901Z,19.75
2018-08-19T22:57:23.240Z,19.73
2018-08-19T22:59:52.561Z,19.70
2018-08-19T23:02:22.106Z,19.65
2018-08-19T23:04:51.433Z,19.72
2018-08-19T23:07:20.691Z,19.68
2018-08-19T23:09:49.974Z,19.71
2018-08-19T23:12:19.273Z,19.63
2018-08-19T23:15:05.656Z,19.61
2018-08-19T23:17:35.030Z,19.61
2018-08-19T23:20:04.354Z,19.50
2018-08-19T23:22:33.630Z,19.41
2018-08-19T23:25:02.921Z,19.38
2018-08-19T23:27:32.194Z,19.33
2018-08-19T23:30:01.456Z,19.25
2018-08-19T23:32:30.760Z,19.21
2018-08-19T23:35:00.094Z,19.23
2018-08-19T23:37:29.360Z,19.13
2018-08-19T23:39:58.826Z,19.12
2018-08-19T23:42:28.122Z,19.05
2018-08-19T23:44:57.454Z,18.92
2018-08-19T23:47:26.709Z,18.86
2018-08-19T23:49:56.046Z,18.87
2018-08-19T23:52:25.377Z,18.96
2018-08-19T23:54:54.640Z,18.96
2018-08-19T23:57:23.942Z,19.02
2018-08-19T23:59:53.306Z,19.04
